createdAt,value
2018-12-06T00:00:18.939Z,70.42
2018-12-06T00:00:53.898Z,72.20
2018-12-06T00:01:28.719Z,71.95
2018-12-06T00:02:03.659Z,66.05
2018-12-06T00:02:38.895Z,63.30
2018-12-06T00:03:13.808Z,56.77
2018-12-06T00:03:48.699Z,66.70
2018-12-06T00:04:23.719Z,72.32
2018-12-06T00:04:58.679Z,73.12
2018-12-06T00:05:33.740Z,65.83
2018-12-06T00:06:08.739Z,62.62
2018-12-06T00:06:43.579Z,60.70
2018-12-06T00:07:18.558Z,70.03
2018-12-06T00:08:04.340Z,64.35
2018-12-06T00:08:39.261Z,62.30
2018-12-06T00:09:14.019Z,68.10
2018-12-06T00:09:49.200Z,74.12
2018-12-06T00:10:24.039Z,64.15
2018-12-06T00:10:59.179Z,65.17
2018-12-06T00:11:34.138Z,61.18
2018-12-06T00:12:09.239Z,65.25
2018-12-06T00:12:44.339Z,65.57
2018-12-06T00:13:19.239Z,69.87
2018-12-06T00:13:54.087Z,65.92
2018-12-06T00:14:29.019Z,66.28
2018-12-06T00:15:14.815Z,71.80
2018-12-06T00:15:49.759Z,67.75
2018-12-06T00:16:24.679Z,71.35
2018-12-06T00:16:59.559Z,67.62
2018-12-06T00:17:34.459Z,61.88
2018-12-06T00:18:09.511Z,66.87
2018-12-06T00:18:46.981Z,72.80
2018-12-06T00:19:21.999Z,64.75
2018-12-06T00:19:57.121Z,65.57
2018-12-06T00:20:32.247Z,79.40
2018-12-06T00:21:07.239Z,71.60
2018-12-06T00:21:42.328Z,68.15
2018-12-06T00:22:17.198Z,72.12
2018-12-06T00:22:52.219Z,67.40
2018-12-06T00:23:27.139Z,68.65
2018-12-06T00:24:02.180Z,76.30
2018-12-06T00:24:37.079Z,68.40
2018-12-06T00:25:12.038Z,80.47
2018-12-06T00:25:46.998Z,66.70
2018-12-06T00:26:21.919Z,65.35
2018-12-06T00:26:56.828Z,73.65
2018-12-06T00:27:32.301Z,86.35
2018-12-06T00:28:07.300Z,112.28
2018-12-06T00:28:42.298Z,115.45
2018-12-06T00:29:17.258Z,119.17
2018-12-06T00:30:02.819Z,103.80
2018-12-06T00:30:40.419Z,107.40
2018-12-06T00:31:15.327Z,124.27
2018-12-06T00:31:50.338Z,109.52
2018-12-06T00:32:25.299Z,89.60
2018-12-06T00:33:00.218Z,85.87
2018-12-06T00:33:35.199Z,83.22
2018-12-06T00:34:10.179Z,88.90
2018-12-06T00:34:45.319Z,85.25
2018-12-06T00:35:22.299Z,87.37
2018-12-06T00:35:57.319Z,87.47
2018-12-06T00:36:32.200Z,83.95
2018-12-06T00:37:07.079Z,84.75
2018-12-06T00:37:42.161Z,84.77
2018-12-06T00:38:17.107Z,92.17
2018-12-06T00:38:52.147Z,85.00
2018-12-06T00:39:27.132Z,91.53
2018-12-06T00:40:02.173Z,87.53
2018-12-06T00:40:37.151Z,90.10
2018-12-06T00:41:12.052Z,86.37
2018-12-06T00:41:46.894Z,91.70
2018-12-06T00:42:21.933Z,92.67
2018-12-06T00:42:57.052Z,93.07
2018-12-06T00:43:32.052Z,94.00
2018-12-06T00:44:07.251Z,99.60
2018-12-06T00:44:42.152Z,94.58
2018-12-06T00:45:17.132Z,90.50
2018-12-06T00:45:52.052Z,90.22
2018-12-06T00:46:26.972Z,84.40
2018-12-06T00:47:01.892Z,84.05
2018-12-06T00:47:36.911Z,91.45
2018-12-06T00:48:12.037Z,90.57
2018-12-06T00:48:47.072Z,90.85
2018-12-06T00:49:21.991Z,88.03
2018-12-06T00:49:57.159Z,85.38
2018-12-06T00:50:32.173Z,83.10
2018-12-06T00:51:07.052Z,83.62
2018-12-06T00:51:42.051Z,80.87
2018-12-06T00:52:16.972Z,82.57
2018-12-06T00:52:52.012Z,79.87
2018-12-06T00:53:27.134Z,82.22
2018-12-06T00:54:02.274Z,81.40
2018-12-06T00:54:37.254Z,87.90
2018-12-06T00:55:12.284Z,82.20
2018-12-06T00:55:47.465Z,87.75
2018-12-06T00:56:22.395Z,81.32
2018-12-06T00:56:57.496Z,82.33
2018-12-06T00:57:32.462Z,81.75
2018-12-06T00:58:07.515Z,85.50
2018-12-06T00:58:42.535Z,82.27
2018-12-06T00:59:17.554Z,80.90
2018-12-06T00:59:52.434Z,80.83
2018-12-06T01:00:27.464Z,79.27
2018-12-06T01:01:02.474Z,82.92
2018-12-06T01:01:37.303Z,80.95
2018-12-06T01:02:12.238Z,80.70
2018-12-06T01:02:47.154Z,78.20
2018-12-06T01:03:22.163Z,74.15
2018-12-06T01:03:57.077Z,74.85
2018-12-06T01:04:31.904Z,73.33
2018-12-06T01:05:07.695Z,75.45
2018-12-06T01:05:42.615Z,77.78
2018-12-06T01:06:17.583Z,85.40
2018-12-06T01:06:52.694Z,81.22
2018-12-06T01:07:27.575Z,75.60
2018-12-06T01:08:02.542Z,79.37
2018-12-06T01:08:37.502Z,85.30
2018-12-06T01:09:12.682Z,75.45
2018-12-06T01:09:47.814Z,82.90
2018-12-06T01:10:22.741Z,81.60
2018-12-06T01:10:57.662Z,80.32
2018-12-06T01:11:32.574Z,75.97
2018-12-06T01:12:07.464Z,77.72
2018-12-06T01:12:42.281Z,85.42
2018-12-06T01:13:17.214Z,76.22
2018-12-06T01:13:52.653Z,73.78
2018-12-06T01:14:31.874Z,75.70
2018-12-06T01:15:07.196Z,73.45
2018-12-06T01:15:42.188Z,71.28
2018-12-06T01:16:16.922Z,69.77
2018-12-06T01:16:51.962Z,72.25
2018-12-06T01:17:27.102Z,68.12
2018-12-06T01:18:02.114Z,69.87
2018-12-06T01:18:37.097Z,70.60
2018-12-06T01:19:15.014Z,77.47
2018-12-06T01:19:50.142Z,67.58
2018-12-06T01:20:25.054Z,75.97
2018-12-06T01:21:06.454Z,76.10
2018-12-06T01:21:41.434Z,75.62
2018-12-06T01:22:16.322Z,71.92
2018-12-06T01:22:51.094Z,81.35
2018-12-06T01:23:25.974Z,73.80
2018-12-06T01:24:00.902Z,74.12
2018-12-06T01:24:35.854Z,73.30
2018-12-06T01:25:10.934Z,67.80
2018-12-06T01:25:46.002Z,72.15
2018-12-06T01:26:20.903Z,69.80
2018-12-06T01:26:55.854Z,65.97
2018-12-06T01:27:30.735Z,73.87
2018-12-06T01:28:05.934Z,76.05
2018-12-06T01:28:40.736Z,75.97
2018-12-06T01:29:15.582Z,78.60
2018-12-06T01:29:50.744Z,82.00
2018-12-06T01:30:25.782Z,75.83
2018-12-06T01:31:00.614Z,70.92
2018-12-06T01:31:35.562Z,77.03
2018-12-06T01:32:10.435Z,76.82
2018-12-06T01:32:45.494Z,78.10
2018-12-06T01:33:20.517Z,70.32
2018-12-06T01:33:55.428Z,76.55
2018-12-06T01:34:30.435Z,70.40
2018-12-06T01:35:05.755Z,65.72
2018-12-06T01:35:40.668Z,66.70
2018-12-06T01:36:15.602Z,67.55
2018-12-06T01:36:50.494Z,74.50
2018-12-06T01:37:25.473Z,78.50
2018-12-06T01:38:00.345Z,81.20
2018-12-06T01:38:35.274Z,75.25
2018-12-06T01:39:10.418Z,79.07
2018-12-06T01:39:45.275Z,78.42
2018-12-06T01:40:20.214Z,81.97
2018-12-06T01:40:55.276Z,73.90
2018-12-06T01:41:30.255Z,69.67
2018-12-06T01:42:05.262Z,70.65
2018-12-06T01:42:40.322Z,72.40
2018-12-06T01:43:15.234Z,71.85
2018-12-06T01:43:50.082Z,66.80
2018-12-06T01:44:25.114Z,71.17
2018-12-06T01:45:00.050Z,68.90
2018-12-06T01:45:35.094Z,72.45
2018-12-06T01:46:10.043Z,71.07
2018-12-06T01:46:45.086Z,73.10
2018-12-06T01:47:19.981Z,70.08
2018-12-06T01:47:54.781Z,72.60
2018-12-06T01:48:29.763Z,77.55
2018-12-06T01:49:04.641Z,75.90
2018-12-06T01:49:39.605Z,72.05
2018-12-06T01:50:14.501Z,71.65
2018-12-06T01:50:49.341Z,77.72
2018-12-06T01:51:24.384Z,83.27
2018-12-06T01:51:59.561Z,80.20
2018-12-06T01:52:34.462Z,79.07
2018-12-06T01:53:09.510Z,73.30
2018-12-06T01:53:44.401Z,72.00
2018-12-06T01:54:19.221Z,76.62
2018-12-06T01:54:54.141Z,74.35
2018-12-06T01:55:29.338Z,69.05
2018-12-06T01:56:04.320Z,71.45
2018-12-06T01:56:39.480Z,71.90
2018-12-06T01:57:14.376Z,79.20
2018-12-06T01:57:49.321Z,82.67
2018-12-06T01:58:24.201Z,85.53
2018-12-06T01:58:59.203Z,81.08
2018-12-06T01:59:34.202Z,75.90
2018-12-06T02:00:09.881Z,75.70
2018-12-06T02:00:44.810Z,72.67
2018-12-06T02:01:19.901Z,73.72
2018-12-06T02:01:54.940Z,74.17
2018-12-06T02:02:29.801Z,77.62
2018-12-06T02:03:04.860Z,75.25
2018-12-06T02:03:39.867Z,67.80
2018-12-06T02:04:14.760Z,72.03
2018-12-06T02:04:49.823Z,75.95
2018-12-06T02:05:24.780Z,73.70
2018-12-06T02:05:59.700Z,74.45
2018-12-06T02:06:34.660Z,74.97
2018-12-06T02:07:09.881Z,78.85
2018-12-06T02:07:44.741Z,79.17
2018-12-06T02:08:19.601Z,82.27
2018-12-06T02:08:54.540Z,78.40
2018-12-06T02:09:29.481Z,77.17
2018-12-06T02:10:04.800Z,76.85
2018-12-06T02:10:39.881Z,71.85
2018-12-06T02:11:14.862Z,68.90
2018-12-06T02:11:49.821Z,69.62
2018-12-06T02:12:24.780Z,69.35
2018-12-06T02:12:59.710Z,70.22
2018-12-06T02:13:34.680Z,70.75
2018-12-06T02:14:09.642Z,78.45
2018-12-06T02:14:44.561Z,75.12
2018-12-06T02:15:19.441Z,75.00
2018-12-06T02:15:54.360Z,76.65
2018-12-06T02:16:29.200Z,76.92
2018-12-06T02:17:04.101Z,76.55
2018-12-06T02:17:39.200Z,76.62
2018-12-06T02:18:14.041Z,76.75
2018-12-06T02:18:49.041Z,71.90
2018-12-06T02:19:24.182Z,78.05
2018-12-06T02:19:59.020Z,76.75
2018-12-06T02:20:33.908Z,82.33
2018-12-06T02:21:08.740Z,90.42
2018-12-06T02:21:43.681Z,87.33
2018-12-06T02:22:18.610Z,83.97
2018-12-06T02:22:53.720Z,78.33
2018-12-06T02:23:28.560Z,78.67
2018-12-06T02:24:03.500Z,84.13
2018-12-06T02:24:38.440Z,80.20
2018-12-06T02:25:13.601Z,75.83
2018-12-06T02:25:48.480Z,76.00
2018-12-06T02:26:23.300Z,74.20
2018-12-06T02:26:58.162Z,74.95
2018-12-06T02:27:32.941Z,74.80
2018-12-06T02:28:14.560Z,73.42
2018-12-06T02:28:49.480Z,72.53
2018-12-06T02:29:26.723Z,70.95
2018-12-06T02:30:01.420Z,70.60
2018-12-06T02:30:36.283Z,71.28
2018-12-06T02:31:11.120Z,73.10
2018-12-06T02:31:45.980Z,75.67
2018-12-06T02:32:20.941Z,77.90
2018-12-06T02:32:55.988Z,77.40
2018-12-06T02:33:31.060Z,76.17
2018-12-06T02:34:05.920Z,74.58
2018-12-06T02:34:40.881Z,80.38
2018-12-06T02:35:16.163Z,73.00
2018-12-06T02:35:51.061Z,83.47
2018-12-06T02:36:26.046Z,78.85
2018-12-06T02:37:00.982Z,80.77
2018-12-06T02:37:35.883Z,81.17
2018-12-06T02:38:10.821Z,82.55
2018-12-06T02:38:46.840Z,77.85
2018-12-06T02:39:21.643Z,81.67
2018-12-06T02:39:56.503Z,81.40
2018-12-06T02:40:31.580Z,74.65
2018-12-06T02:41:06.580Z,78.75
2018-12-06T02:41:41.581Z,80.38
2018-12-06T02:42:16.592Z,77.08
2018-12-06T02:42:51.500Z,80.10
2018-12-06T02:43:26.291Z,73.92
2018-12-06T02:44:01.432Z,78.37
2018-12-06T02:44:36.368Z,73.02
2018-12-06T02:45:12.827Z,75.35
2018-12-06T02:45:48.052Z,75.70
2018-12-06T02:46:22.952Z,79.15
2018-12-06T02:46:57.953Z,78.25
2018-12-06T02:47:33.099Z,81.57
2018-12-06T02:48:08.213Z,75.08
2018-12-06T02:48:43.080Z,74.75
2018-12-06T02:49:18.476Z,74.82
2018-12-06T02:49:53.793Z,71.85
2018-12-06T02:50:28.774Z,75.08
2018-12-06T02:51:03.631Z,70.45
2018-12-06T02:51:38.852Z,72.15
2018-12-06T02:52:14.000Z,78.83
2018-12-06T02:52:49.211Z,74.60
2018-12-06T02:53:24.333Z,74.90
2018-12-06T02:53:59.353Z,70.30
2018-12-06T02:54:34.401Z,70.65
2018-12-06T02:55:09.292Z,80.60
2018-12-06T02:55:44.332Z,76.07
2018-12-06T02:56:19.072Z,70.10
2018-12-06T02:56:54.131Z,77.65
2018-12-06T02:57:29.414Z,77.08
2018-12-06T02:58:04.472Z,73.07
2018-12-06T02:58:39.597Z,79.32
2018-12-06T02:59:14.440Z,73.25
2018-12-06T02:59:49.492Z,75.08
2018-12-06T03:00:24.472Z,74.32
2018-12-06T03:00:59.531Z,74.50
2018-12-06T03:01:34.874Z,71.33
2018-12-06T03:02:09.856Z,72.37
2018-12-06T03:02:44.879Z,74.07
2018-12-06T03:03:20.333Z,78.07
2018-12-06T03:03:55.200Z,71.42
2018-12-06T03:04:30.416Z,79.10
2018-12-06T03:05:05.652Z,89.65
2018-12-06T03:05:40.553Z,85.72
2018-12-06T03:06:15.492Z,82.82
2018-12-06T03:06:50.531Z,77.53
2018-12-06T03:07:25.412Z,80.62
2018-12-06T03:08:00.335Z,81.30
2018-12-06T03:08:35.552Z,85.25
2018-12-06T03:09:10.412Z,79.67
2018-12-06T03:09:46.393Z,84.25
2018-12-06T03:10:21.560Z,83.25
2018-12-06T03:10:56.501Z,82.12
2018-12-06T03:11:31.493Z,82.40
2018-12-06T03:12:06.335Z,82.00
2018-12-06T03:12:41.301Z,83.70
2018-12-06T03:13:16.313Z,77.03
2018-12-06T03:13:51.301Z,77.35
2018-12-06T03:14:26.433Z,82.47
2018-12-06T03:15:01.261Z,80.65
2018-12-06T03:15:36.253Z,81.47
2018-12-06T03:16:11.193Z,78.10
2018-12-06T03:16:46.422Z,78.42
2018-12-06T03:17:21.252Z,77.08
2018-12-06T03:17:56.232Z,79.80
2018-12-06T03:18:31.213Z,80.07
2018-12-06T03:19:06.253Z,82.92
2018-12-06T03:19:41.132Z,85.70
2018-12-06T03:20:16.013Z,82.67
2018-12-06T03:20:50.855Z,87.65
2018-12-06T03:21:25.833Z,94.30
2018-12-06T03:22:00.752Z,81.90
2018-12-06T03:22:35.640Z,84.58
2018-12-06T03:23:10.588Z,83.25
2018-12-06T03:23:45.512Z,78.07
2018-12-06T03:24:20.513Z,86.65
2018-12-06T03:24:55.672Z,88.20
2018-12-06T03:25:30.661Z,85.57
2018-12-06T03:26:05.733Z,82.35
2018-12-06T03:26:40.834Z,78.72
2018-12-06T03:27:16.332Z,84.13
2018-12-06T03:27:51.333Z,90.12
2018-12-06T03:28:26.313Z,88.60
2018-12-06T03:29:02.618Z,86.47
2018-12-06T03:29:37.534Z,92.62
2018-12-06T03:30:12.694Z,99.25
2018-12-06T03:30:47.488Z,96.67
2018-12-06T03:31:22.397Z,92.97
2018-12-06T03:31:57.200Z,88.50
2018-12-06T03:32:31.840Z,90.80
2018-12-06T03:33:06.640Z,94.75
2018-12-06T03:33:41.244Z,96.28
2018-12-06T03:34:15.764Z,92.33
2018-12-06T03:34:50.359Z,97.80
2018-12-06T03:35:25.059Z,92.67
2018-12-06T03:35:59.688Z,92.82
2018-12-06T03:36:34.359Z,88.90
2018-12-06T03:37:08.920Z,86.02
2018-12-06T03:37:43.460Z,92.45
2018-12-06T03:38:18.119Z,92.72
2018-12-06T03:38:52.680Z,91.28
2018-12-06T03:39:27.359Z,94.15
2018-12-06T03:40:01.959Z,95.42
2018-12-06T03:40:36.648Z,95.90
2018-12-06T03:41:11.319Z,97.78
2018-12-06T03:41:45.982Z,94.60
2018-12-06T03:42:20.859Z,92.60
2018-12-06T03:42:55.441Z,97.78
2018-12-06T03:43:30.079Z,95.25
2018-12-06T03:44:04.858Z,99.70
2018-12-06T03:44:39.639Z,96.00
2018-12-06T03:45:14.278Z,96.22
2018-12-06T03:45:49.039Z,89.10
2018-12-06T03:46:23.839Z,87.55
2018-12-06T03:46:58.420Z,88.87
2018-12-06T03:47:32.924Z,89.45
2018-12-06T03:48:07.558Z,88.17
2018-12-06T03:48:42.059Z,86.10
2018-12-06T03:49:16.699Z,87.80
2018-12-06T03:49:51.279Z,89.28
2018-12-06T03:50:25.979Z,86.05
2018-12-06T03:51:00.599Z,92.08
2018-12-06T03:51:35.319Z,91.42
2018-12-06T03:52:10.059Z,97.55
2018-12-06T03:52:44.639Z,101.02
2018-12-06T03:53:19.281Z,91.05
2018-12-06T03:53:53.858Z,94.05
2018-12-06T03:54:28.419Z,91.90
2018-12-06T03:55:03.098Z,87.00
2018-12-06T03:55:37.639Z,82.53
2018-12-06T03:56:12.358Z,82.62
2018-12-06T03:56:46.979Z,85.72
2018-12-06T03:57:21.827Z,84.28
2018-12-06T03:57:56.378Z,85.83
2018-12-06T03:58:31.059Z,87.42
2018-12-06T03:59:05.679Z,87.22
2018-12-06T03:59:40.363Z,86.40
2018-12-06T04:00:15.098Z,81.40
2018-12-06T04:00:49.919Z,79.10
2018-12-06T04:01:24.560Z,76.37
2018-12-06T04:01:59.139Z,75.67
2018-12-06T04:02:33.700Z,77.32
2018-12-06T04:03:08.360Z,75.17
2018-12-06T04:03:43.019Z,81.10
2018-12-06T04:04:17.660Z,78.40
2018-12-06T04:04:52.319Z,77.87
2018-12-06T04:05:26.879Z,80.42
2018-12-06T04:06:01.439Z,80.28
2018-12-06T04:06:36.197Z,77.78
2018-12-06T04:07:10.839Z,80.28
2018-12-06T04:07:45.500Z,78.17
2018-12-06T04:08:20.059Z,80.90
2018-12-06T04:08:54.679Z,78.22
2018-12-06T04:09:29.199Z,77.70
2018-12-06T04:10:03.920Z,78.65
2018-12-06T04:10:38.560Z,75.65
2018-12-06T04:11:13.206Z,76.80
2018-12-06T04:11:47.819Z,74.82
2018-12-06T04:12:22.459Z,74.82
2018-12-06T04:12:56.999Z,78.00
2018-12-06T04:13:37.959Z,75.30
2018-12-06T04:14:12.659Z,79.77
2018-12-06T04:14:47.323Z,79.35
2018-12-06T04:15:21.882Z,88.85
2018-12-06T04:15:56.539Z,87.40
2018-12-06T04:16:31.237Z,84.20
2018-12-06T04:17:06.099Z,84.70
2018-12-06T04:17:40.662Z,81.80
2018-12-06T04:18:15.319Z,79.37
2018-12-06T04:18:49.840Z,80.07
2018-12-06T04:19:24.580Z,78.90
2018-12-06T04:19:59.199Z,76.40
2018-12-06T04:20:33.843Z,74.80
2018-12-06T04:21:08.401Z,74.12
2018-12-06T04:21:43.180Z,72.82
2018-12-06T04:22:17.860Z,74.75
2018-12-06T04:22:52.442Z,71.35
2018-12-06T04:23:26.988Z,71.82
2018-12-06T04:24:01.640Z,68.17
2018-12-06T04:24:36.040Z,70.60
2018-12-06T04:25:10.739Z,72.60
2018-12-06T04:25:45.399Z,71.57
2018-12-06T04:26:20.060Z,71.47
2018-12-06T04:26:54.727Z,70.42
2018-12-06T04:27:29.460Z,71.25
2018-12-06T04:28:04.120Z,74.87
2018-12-06T04:28:38.820Z,75.57
2018-12-06T04:29:13.499Z,74.27
2018-12-06T04:29:48.139Z,73.02
2018-12-06T04:30:22.739Z,71.07
2018-12-06T04:30:57.400Z,72.70
2018-12-06T04:31:32.046Z,70.78
2018-12-06T04:32:06.642Z,73.52
2018-12-06T04:32:41.361Z,68.40
2018-12-06T04:33:16.019Z,69.87
2018-12-06T04:33:50.619Z,72.60
2018-12-06T04:34:25.380Z,70.85
2018-12-06T04:34:59.950Z,74.67
2018-12-06T04:35:34.679Z,75.57
2018-12-06T04:36:09.320Z,79.62
2018-12-06T04:36:43.920Z,80.53
2018-12-06T04:37:18.459Z,80.67
2018-12-06T04:37:53.100Z,77.05
2018-12-06T04:38:27.743Z,77.80
2018-12-06T04:39:02.539Z,75.78
2018-12-06T04:39:37.117Z,71.15
2018-12-06T04:40:11.800Z,70.78
2018-12-06T04:40:46.400Z,65.62
2018-12-06T04:41:21.081Z,66.10
2018-12-06T04:41:55.820Z,68.50
2018-12-06T04:42:30.521Z,66.10
2018-12-06T04:43:05.179Z,66.70
2018-12-06T04:43:39.861Z,67.03
2018-12-06T04:44:14.439Z,70.52
2018-12-06T04:44:49.100Z,78.30
2018-12-06T04:45:23.622Z,72.40
2018-12-06T04:45:58.300Z,78.52
2018-12-06T04:46:32.922Z,78.07
2018-12-06T04:47:07.583Z,73.45
2018-12-06T04:47:42.260Z,71.77
2018-12-06T04:48:21.972Z,68.62
2018-12-06T04:48:53.744Z,68.62
2018-12-06T04:49:28.340Z,67.00
2018-12-06T04:50:02.960Z,70.70
2018-12-06T04:50:37.647Z,73.37
2018-12-06T04:51:12.260Z,73.02
2018-12-06T04:51:46.960Z,78.70
2018-12-06T04:52:21.580Z,73.55
2018-12-06T04:52:56.380Z,72.62
2018-12-06T04:53:31.000Z,72.95
2018-12-06T04:54:06.041Z,75.37
2018-12-06T04:54:40.728Z,75.78
2018-12-06T04:55:15.502Z,81.80
2018-12-06T04:55:50.320Z,75.47
2018-12-06T04:56:24.820Z,71.28
2018-12-06T04:56:59.459Z,67.22
2018-12-06T04:57:33.941Z,64.40
2018-12-06T04:58:08.641Z,62.43
2018-12-06T04:58:43.290Z,65.90
2018-12-06T04:59:18.192Z,71.00
2018-12-06T04:59:53.175Z,71.37
2018-12-06T05:00:28.235Z,71.53
2018-12-06T05:01:03.258Z,68.97
2018-12-06T05:01:38.255Z,72.70
2018-12-06T05:02:13.276Z,69.12
2018-12-06T05:02:48.255Z,64.35
2018-12-06T05:03:23.115Z,67.17
2018-12-06T05:03:58.255Z,62.43
2018-12-06T05:04:33.296Z,62.48
2018-12-06T05:05:08.479Z,63.10
2018-12-06T05:05:43.471Z,60.30
2018-12-06T05:06:18.336Z,58.40
2018-12-06T05:06:53.235Z,62.88
2018-12-06T05:07:28.059Z,59.90
2018-12-06T05:08:03.035Z,59.77
2018-12-06T05:08:38.132Z,60.30
2018-12-06T05:09:13.215Z,60.75
2018-12-06T05:09:48.295Z,63.42
2018-12-06T05:10:23.158Z,63.17
2018-12-06T05:10:58.115Z,61.73
2018-12-06T05:11:33.143Z,61.42
2018-12-06T05:12:07.995Z,60.60
2018-12-06T05:12:43.055Z,63.23
2018-12-06T05:13:17.966Z,62.20
2018-12-06T05:13:53.116Z,63.28
2018-12-06T05:14:28.395Z,63.92
2018-12-06T05:15:03.580Z,68.60
2018-12-06T05:15:38.300Z,67.78
2018-12-06T05:16:12.982Z,65.55
2018-12-06T05:16:47.624Z,67.12
2018-12-06T05:17:22.308Z,66.40
2018-12-06T05:17:57.080Z,72.03
2018-12-06T05:18:31.620Z,73.37
2018-12-06T05:19:06.181Z,66.22
2018-12-06T05:19:40.905Z,63.68
2018-12-06T05:20:15.540Z,61.20
2018-12-06T05:20:50.240Z,59.90
2018-12-06T05:21:24.879Z,57.98
2018-12-06T05:21:59.480Z,57.53
2018-12-06T05:22:34.201Z,59.63
2018-12-06T05:23:08.920Z,55.83
2018-12-06T05:23:43.439Z,62.50
2018-12-06T05:24:18.080Z,62.75
2018-12-06T05:24:52.759Z,67.85
2018-12-06T05:25:27.561Z,67.35
2018-12-06T05:26:02.300Z,68.12
2018-12-06T05:26:36.942Z,67.67
2018-12-06T05:27:11.620Z,72.62
2018-12-06T05:27:46.339Z,65.05
2018-12-06T05:28:20.959Z,66.62
2018-12-06T05:28:55.799Z,78.87
2018-12-06T05:29:30.362Z,76.12
2018-12-06T05:30:05.660Z,76.77
2018-12-06T05:30:40.340Z,81.05
2018-12-06T05:31:14.979Z,86.63
2018-12-06T05:31:49.700Z,79.58
2018-12-06T05:32:24.400Z,70.87
2018-12-06T05:32:59.060Z,75.70
2018-12-06T05:33:33.743Z,65.45
2018-12-06T05:34:08.419Z,63.60
2018-12-06T05:34:43.080Z,67.82
2018-12-06T05:35:17.799Z,62.30
2018-12-06T05:35:52.379Z,61.68
2018-12-06T05:36:27.120Z,66.42
2018-12-06T05:37:01.720Z,66.85
2018-12-06T05:37:36.600Z,66.97
2018-12-06T05:38:11.179Z,69.07
2018-12-06T05:38:45.860Z,69.05
2018-12-06T05:39:20.479Z,71.75
2018-12-06T05:39:55.180Z,68.62
2018-12-06T05:40:29.859Z,70.57
2018-12-06T05:41:04.528Z,69.92
2018-12-06T05:41:39.122Z,67.10
2018-12-06T05:42:14.643Z,63.87
2018-12-06T05:42:49.343Z,63.78
2018-12-06T05:43:24.001Z,65.85
2018-12-06T05:43:58.781Z,67.85
2018-12-06T05:44:33.364Z,68.52
2018-12-06T05:45:08.101Z,65.12
2018-12-06T05:45:45.323Z,64.50
2018-12-06T05:46:20.009Z,66.02
2018-12-06T05:46:54.621Z,64.67
2018-12-06T05:47:29.261Z,66.25
2018-12-06T05:48:03.902Z,64.42
2018-12-06T05:48:38.490Z,72.15
2018-12-06T05:49:13.145Z,70.08
2018-12-06T05:49:47.801Z,68.02
2018-12-06T05:50:22.544Z,63.52
2018-12-06T05:50:57.141Z,62.10
2018-12-06T05:51:31.844Z,62.48
2018-12-06T05:52:06.422Z,59.75
2018-12-06T05:52:41.121Z,62.08
2018-12-06T05:53:15.789Z,58.45
2018-12-06T05:53:50.661Z,58.48
2018-12-06T05:54:25.181Z,56.53
2018-12-06T05:54:59.981Z,58.48
2018-12-06T05:55:34.731Z,58.50
2018-12-06T05:56:09.543Z,58.20
2018-12-06T05:56:44.283Z,57.85
2018-12-06T05:57:18.981Z,58.68
2018-12-06T05:57:53.682Z,63.17
2018-12-06T05:58:28.281Z,60.92
2018-12-06T05:59:03.101Z,63.02
2018-12-06T05:59:37.721Z,59.90
2018-12-06T06:00:12.261Z,62.27
2018-12-06T06:00:46.923Z,60.75
2018-12-06T06:01:21.549Z,58.70
2018-12-06T06:01:56.265Z,58.20
2018-12-06T06:02:30.901Z,58.15
2018-12-06T06:03:05.481Z,56.55
2018-12-06T06:03:40.041Z,57.45
2018-12-06T06:04:14.781Z,57.93
2018-12-06T06:04:49.361Z,59.93
2018-12-06T06:05:24.001Z,57.73
2018-12-06T06:05:58.361Z,57.48
2018-12-06T06:06:33.124Z,58.90
2018-12-06T06:07:07.772Z,53.28
2018-12-06T06:07:42.541Z,54.85
2018-12-06T06:08:17.141Z,58.78
2018-12-06T06:08:51.802Z,59.25
2018-12-06T06:09:26.349Z,58.60
2018-12-06T06:10:01.022Z,59.08
2018-12-06T06:10:35.642Z,61.35
2018-12-06T06:11:10.321Z,60.12
2018-12-06T06:11:45.029Z,58.28
2018-12-06T06:12:19.761Z,55.98
2018-12-06T06:12:54.402Z,59.80
2018-12-06T06:13:29.094Z,59.18
2018-12-06T06:14:03.602Z,65.00
2018-12-06T06:14:38.341Z,66.10
2018-12-06T06:15:12.946Z,61.85
2018-12-06T06:15:47.480Z,61.65
2018-12-06T06:16:22.061Z,67.05
2018-12-06T06:16:56.641Z,66.33
2018-12-06T06:17:31.361Z,61.50
2018-12-06T06:18:05.969Z,57.62
2018-12-06T06:18:40.660Z,62.83
2018-12-06T06:19:15.321Z,56.53
2018-12-06T06:19:50.001Z,56.92
2018-12-06T06:20:24.641Z,58.35
2018-12-06T06:20:59.321Z,56.28
2018-12-06T06:21:33.921Z,58.52
2018-12-06T06:22:08.781Z,57.53
2018-12-06T06:22:43.362Z,57.98
2018-12-06T06:23:18.181Z,59.42
2018-12-06T06:23:52.741Z,57.83
2018-12-06T06:24:27.321Z,58.92
2018-12-06T06:25:01.861Z,58.55
2018-12-06T06:25:36.569Z,60.83
2018-12-06T06:26:11.230Z,57.45
2018-12-06T06:26:45.961Z,58.98
2018-12-06T06:27:20.604Z,60.23
2018-12-06T06:27:55.201Z,64.25
2018-12-06T06:28:29.721Z,65.25
2018-12-06T06:29:04.381Z,62.60
2018-12-06T06:29:39.161Z,67.55
2018-12-06T06:30:13.921Z,66.30
2018-12-06T06:30:48.481Z,65.85
2018-12-06T06:31:23.161Z,69.07
2018-12-06T06:31:57.700Z,62.20
2018-12-06T06:32:32.521Z,67.30
2018-12-06T06:33:08.742Z,66.72
2018-12-06T06:33:43.581Z,61.63
2018-12-06T06:34:18.301Z,61.58
2018-12-06T06:34:52.940Z,89.80
2018-12-06T06:35:27.581Z,77.15
2018-12-06T06:36:02.420Z,80.03
2018-12-06T06:36:37.060Z,62.95
2018-12-06T06:37:11.721Z,63.20
2018-12-06T06:37:46.461Z,63.58
2018-12-06T06:38:21.120Z,62.23
2018-12-06T06:38:55.838Z,62.88
2018-12-06T06:39:30.521Z,71.87
2018-12-06T06:40:05.667Z,61.88
2018-12-06T06:40:40.622Z,60.30
2018-12-06T06:41:15.260Z,61.20
2018-12-06T06:41:49.840Z,60.35
2018-12-06T06:42:24.722Z,57.23
2018-12-06T06:42:59.561Z,59.18
2018-12-06T06:43:34.201Z,59.60
2018-12-06T06:44:08.802Z,56.18
2018-12-06T06:44:43.480Z,60.00
2018-12-06T06:45:18.061Z,58.52
2018-12-06T06:45:52.781Z,58.87
2018-12-06T06:46:27.381Z,64.60
2018-12-06T06:47:02.140Z,60.12
2018-12-06T06:47:36.920Z,60.63
2018-12-06T06:48:11.581Z,64.55
2018-12-06T06:48:46.321Z,58.38
2018-12-06T06:49:21.041Z,61.65
2018-12-06T06:49:55.741Z,61.92
2018-12-06T06:50:30.340Z,66.00
2018-12-06T06:51:05.080Z,60.23
2018-12-06T06:51:39.701Z,61.80
2018-12-06T06:52:14.361Z,64.70
2018-12-06T06:52:50.476Z,61.92
2018-12-06T06:53:25.383Z,60.95
2018-12-06T06:54:00.001Z,60.17
2018-12-06T06:54:34.683Z,57.35
2018-12-06T06:55:09.421Z,61.37
2018-12-06T06:55:44.243Z,59.48
2018-12-06T06:56:18.741Z,58.78
2018-12-06T06:56:53.682Z,56.28
2018-12-06T06:57:28.362Z,58.17
2018-12-06T06:58:03.021Z,59.15
2018-12-06T06:58:37.704Z,62.58
2018-12-06T06:59:12.385Z,61.42
2018-12-06T06:59:46.922Z,58.87
2018-12-06T07:00:21.621Z,59.15
2018-12-06T07:00:56.261Z,61.73
2018-12-06T07:01:30.901Z,64.27
2018-12-06T07:02:05.566Z,61.08
2018-12-06T07:02:46.741Z,64.40
2018-12-06T07:03:21.341Z,63.60
2018-12-06T07:03:56.161Z,64.87
2018-12-06T07:04:30.821Z,67.75
2018-12-06T07:05:06.000Z,72.90
2018-12-06T07:05:40.701Z,68.97
2018-12-06T07:06:15.220Z,70.97
2018-12-06T07:06:49.901Z,71.00
2018-12-06T07:07:24.541Z,72.67
2018-12-06T07:07:59.341Z,67.05
2018-12-06T07:08:34.101Z,69.00
2018-12-06T07:09:09.141Z,67.32
2018-12-06T07:09:43.843Z,69.40
2018-12-06T07:10:18.421Z,70.03
2018-12-06T07:10:53.081Z,65.05
2018-12-06T07:11:27.761Z,70.28
2018-12-06T07:12:02.677Z,75.60
2018-12-06T07:12:37.161Z,72.97
2018-12-06T07:13:11.941Z,72.22
2018-12-06T07:13:46.621Z,75.00
2018-12-06T07:14:21.342Z,81.70
2018-12-06T07:14:56.001Z,91.15
2018-12-06T07:15:30.681Z,96.42
2018-12-06T07:16:05.655Z,91.15
2018-12-06T07:16:40.261Z,90.90
2018-12-06T07:17:15.062Z,89.65
2018-12-06T07:17:49.681Z,85.97
2018-12-06T07:18:24.381Z,86.78
2018-12-06T07:18:59.021Z,86.50
2018-12-06T07:19:33.761Z,88.55
2018-12-06T07:20:08.382Z,88.27
2018-12-06T07:20:43.175Z,89.95
2018-12-06T07:21:17.969Z,84.77
2018-12-06T07:21:52.661Z,82.95
2018-12-06T07:22:27.343Z,82.08
2018-12-06T07:23:01.821Z,83.67
2018-12-06T07:23:36.101Z,73.37
2018-12-06T07:24:10.343Z,68.00
2018-12-06T07:24:44.681Z,64.07
2018-12-06T07:25:19.000Z,57.30
2018-12-06T07:25:53.319Z,56.00
2018-12-06T07:26:28.237Z,58.58
2018-12-06T07:27:03.179Z,61.13
2018-12-06T07:27:37.860Z,60.98
2018-12-06T07:28:12.527Z,58.28
2018-12-06T07:28:47.214Z,58.65
2018-12-06T07:29:21.802Z,59.42
2018-12-06T07:29:56.542Z,58.90